createdAt,value
2017-09-28T00:00:03.746Z,79.8
2017-09-28T00:01:05.139Z,80.6
2017-09-28T00:02:06.527Z,80.6
2017-09-28T00:03:07.917Z,80.1
2017-09-28T00:04:09.314Z,81.1
2017-09-28T00:05:10.703Z,81.0
2017-09-28T00:06:12.108Z,81.0
2017-09-28T00:07:13.498Z,80.8
2017-09-28T00:08:14.893Z,80.8
2017-09-28T00:09:16.282Z,80.9
2017-09-28T00:10:17.675Z,81.2
2017-09-28T00:11:19.071Z,81.3
2017-09-28T00:12:20.459Z,81.2
2017-09-28T00:13:21.850Z,81.1
2017-09-28T00:14:23.235Z,80.9
2017-09-28T00:15:24.629Z,81.1
2017-09-28T00:16:26.023Z,81.5
2017-09-28T00:17:27.416Z,81.8
2017-09-28T00:18:28.805Z,82.0
2017-09-28T00:19:30.194Z,81.1
2017-09-28T00:20:31.584Z,81.7
2017-09-28T00:21:32.972Z,82.1
2017-09-28T00:22:34.366Z,81.4
2017-09-28T00:23:35.757Z,81.9
2017-09-28T00:24:37.150Z,82.1
2017-09-28T00:25:38.545Z,82.1
2017-09-28T00:26:39.930Z,82.1
2017-09-28T00:27:41.320Z,82.3
2017-09-28T00:28:42.709Z,81.9
2017-09-28T00:29:44.100Z,82.1
2017-09-28T00:30:45.492Z,82.1
2017-09-28T00:31:46.883Z,82.6
2017-09-28T00:32:48.272Z,82.4
2017-09-28T00:33:49.662Z,82.1
2017-09-28T00:34:51.051Z,82.4
2017-09-28T00:35:52.438Z,82.7
2017-09-28T00:36:53.830Z,82.6
2017-09-28T00:37:55.221Z,82.6
2017-09-28T00:38:56.615Z,83.0
2017-09-28T00:39:58.003Z,82.8
2017-09-28T00:40:59.391Z,83.3
2017-09-28T00:42:00.781Z,83.2
2017-09-28T00:43:02.173Z,82.9
2017-09-28T00:44:03.562Z,82.9
2017-09-28T00:45:04.954Z,83.2
2017-09-28T00:46:06.347Z,83.0
2017-09-28T00:47:07.736Z,83.2
2017-09-28T00:48:09.127Z,83.1
2017-09-28T00:49:10.514Z,83.4
2017-09-28T00:50:11.903Z,83.6
2017-09-28T00:51:13.297Z,83.7
2017-09-28T00:52:14.683Z,83.7
2017-09-28T00:53:16.077Z,83.8
2017-09-28T00:54:17.513Z,83.8
2017-09-28T00:55:18.862Z,83.8
2017-09-28T00:56:20.253Z,83.5
2017-09-28T00:57:21.645Z,83.0
2017-09-28T00:58:23.035Z,83.1
2017-09-28T00:59:24.426Z,82.9
2017-09-28T01:00:25.816Z,82.8
2017-09-28T01:01:27.209Z,83.5
2017-09-28T01:02:28.597Z,82.9
2017-09-28T01:03:29.988Z,83.2
2017-09-28T01:04:31.375Z,82.9
2017-09-28T01:05:32.764Z,82.9
2017-09-28T01:06:34.153Z,83.2
2017-09-28T01:07:35.556Z,83.3
2017-09-28T01:08:36.952Z,83.0
2017-09-28T01:09:38.344Z,83.1
2017-09-28T01:10:39.731Z,83.1
2017-09-28T01:11:41.123Z,83.0
2017-09-28T01:12:42.510Z,82.9
2017-09-28T01:13:43.900Z,83.2
2017-09-28T01:14:45.292Z,83.3
2017-09-28T01:15:46.683Z,83.2
2017-09-28T01:16:48.072Z,83.1
2017-09-28T01:17:49.460Z,83.1
2017-09-28T01:18:50.851Z,82.8
2017-09-28T01:19:52.241Z,83.3
2017-09-28T01:20:53.631Z,83.0
2017-09-28T01:21:55.024Z,82.9
2017-09-28T01:22:56.416Z,83.1
2017-09-28T01:23:57.804Z,83.5
2017-09-28T01:24:59.192Z,83.6
2017-09-28T01:26:00.581Z,83.2
2017-09-28T01:27:01.976Z,83.3
2017-09-28T01:28:03.367Z,83.5
2017-09-28T01:29:04.761Z,83.1
2017-09-28T01:30:06.168Z,83.5
2017-09-28T01:31:07.557Z,83.6
2017-09-28T01:32:08.945Z,83.1
2017-09-28T01:33:10.333Z,83.8
2017-09-28T01:34:11.723Z,83.7
2017-09-28T01:35:13.116Z,83.7
2017-09-28T01:36:14.508Z,83.8
2017-09-28T01:37:15.901Z,83.5
2017-09-28T01:38:17.294Z,83.8
2017-09-28T01:39:18.681Z,84.1
2017-09-28T01:40:20.069Z,83.7
2017-09-28T01:41:21.458Z,84.5
2017-09-28T01:42:22.847Z,84.2
2017-09-28T01:43:24.251Z,84.5
2017-09-28T01:44:25.644Z,84.5
2017-09-28T01:45:27.034Z,83.6
2017-09-28T01:46:28.424Z,83.8
2017-09-28T01:47:29.815Z,84.0
2017-09-28T01:48:31.205Z,83.7
2017-09-28T01:49:32.599Z,83.9
2017-09-28T01:50:33.992Z,84.1
2017-09-28T01:51:35.384Z,84.2
2017-09-28T01:52:36.768Z,84.0
2017-09-28T01:53:38.159Z,83.7
2017-09-28T01:54:39.547Z,83.7
2017-09-28T01:55:40.935Z,84.2
2017-09-28T01:56:42.333Z,83.7
2017-09-28T01:57:43.722Z,83.5
2017-09-28T01:58:45.116Z,84.1
2017-09-28T01:59:46.509Z,83.9
2017-09-28T02:00:47.892Z,84.1
2017-09-28T02:01:49.281Z,83.8
2017-09-28T02:02:50.672Z,83.7
2017-09-28T02:03:52.061Z,83.4
2017-09-28T02:04:53.455Z,83.4
2017-09-28T02:05:54.843Z,82.9
2017-09-28T02:06:56.230Z,82.7
2017-09-28T02:07:57.621Z,83.0
2017-09-28T02:08:59.010Z,83.3
2017-09-28T02:10:00.401Z,83.1
2017-09-28T02:11:01.791Z,83.3
2017-09-28T02:12:03.183Z,83.1
2017-09-28T02:13:04.570Z,83.2
2017-09-28T02:14:05.962Z,83.2
2017-09-28T02:15:07.349Z,83.2
2017-09-28T02:16:08.740Z,82.9
2017-09-28T02:17:10.134Z,83.2
2017-09-28T02:18:11.523Z,82.9
2017-09-28T02:19:12.915Z,82.7
2017-09-28T02:20:14.311Z,82.8
2017-09-28T02:21:15.698Z,82.7
2017-09-28T02:22:17.089Z,82.9
2017-09-28T02:23:18.477Z,82.1
2017-09-28T02:24:19.869Z,82.4
2017-09-28T02:25:21.259Z,82.3
2017-09-28T02:26:22.650Z,82.8
2017-09-28T02:27:24.046Z,82.2
2017-09-28T02:28:25.459Z,82.3
2017-09-28T02:29:26.822Z,82.4
2017-09-28T02:30:28.210Z,82.7
2017-09-28T02:31:29.599Z,82.5
2017-09-28T02:32:30.996Z,82.7
2017-09-28T02:33:32.389Z,82.3
2017-09-28T02:34:33.781Z,82.7
2017-09-28T02:35:35.209Z,82.6
2017-09-28T02:36:36.600Z,82.1
2017-09-28T02:37:37.991Z,82.5
2017-09-28T02:38:39.386Z,82.4
2017-09-28T02:39:40.773Z,82.8
2017-09-28T02:40:42.163Z,82.3
2017-09-28T02:41:43.555Z,82.1
2017-09-28T02:42:44.943Z,82.1
2017-09-28T02:43:46.350Z,82.8
2017-09-28T02:44:47.743Z,82.9
2017-09-28T02:45:49.129Z,82.6
2017-09-28T02:46:50.519Z,82.9
2017-09-28T02:47:51.911Z,82.2
2017-09-28T02:48:53.304Z,82.3
2017-09-28T02:49:54.694Z,82.4
2017-09-28T02:50:56.082Z,82.6
2017-09-28T02:51:57.473Z,82.9
2017-09-28T02:52:58.864Z,83.0
2017-09-28T02:54:00.255Z,83.1
2017-09-28T02:55:01.646Z,82.7
2017-09-28T02:56:03.040Z,82.7
2017-09-28T02:57:05.616Z,82.5
2017-09-28T02:58:07.003Z,82.8
2017-09-28T02:59:08.392Z,82.3
2017-09-28T03:00:09.780Z,82.3
2017-09-28T03:01:11.172Z,82.1
2017-09-28T03:02:12.565Z,82.3
2017-09-28T03:03:13.955Z,82.3
2017-09-28T03:04:15.344Z,82.5
2017-09-28T03:05:16.731Z,82.3
2017-09-28T03:06:18.120Z,82.7
2017-09-28T03:07:19.512Z,82.5
2017-09-28T03:08:20.906Z,82.3
2017-09-28T03:09:22.294Z,82.2
2017-09-28T03:10:23.686Z,82.4
2017-09-28T03:11:25.072Z,82.0
2017-09-28T03:12:26.463Z,82.1
2017-09-28T03:13:27.856Z,82.7
2017-09-28T03:14:29.246Z,82.5
2017-09-28T03:15:30.634Z,82.1
2017-09-28T03:16:32.027Z,82.7
2017-09-28T03:17:33.421Z,81.9
2017-09-28T03:18:34.810Z,82.2
2017-09-28T03:19:36.201Z,82.2
2017-09-28T03:20:37.593Z,81.5
2017-09-28T03:21:38.995Z,82.4
2017-09-28T03:22:40.374Z,81.6
2017-09-28T03:23:41.767Z,81.6
2017-09-28T03:24:43.157Z,82.5
2017-09-28T03:25:44.545Z,82.0
2017-09-28T03:26:45.936Z,82.5
2017-09-28T03:27:47.328Z,82.0
2017-09-28T03:28:48.719Z,82.3
2017-09-28T03:29:50.110Z,82.0
2017-09-28T03:30:51.502Z,82.8
2017-09-28T03:31:52.893Z,82.7
2017-09-28T03:32:54.282Z,82.2
2017-09-28T03:33:55.673Z,82.0
2017-09-28T03:34:57.060Z,82.2
2017-09-28T03:35:58.453Z,82.7
2017-09-28T03:36:59.845Z,82.8
2017-09-28T03:38:01.236Z,82.5
2017-09-28T03:39:02.629Z,82.2
2017-09-28T03:40:04.016Z,82.6
2017-09-28T03:41:05.406Z,82.4
2017-09-28T03:42:06.795Z,82.3
2017-09-28T03:43:08.204Z,82.8
2017-09-28T03:44:09.593Z,82.4
2017-09-28T03:45:10.993Z,82.3
2017-09-28T03:46:12.379Z,82.3
2017-09-28T03:47:13.765Z,82.4
2017-09-28T03:48:15.156Z,82.6
2017-09-28T03:49:16.556Z,82.5
2017-09-28T03:50:17.944Z,82.4
2017-09-28T03:51:19.334Z,82.3
2017-09-28T03:52:20.726Z,82.2
2017-09-28T03:53:22.121Z,82.3
2017-09-28T03:54:23.508Z,82.5
2017-09-28T03:55:24.898Z,82.3
2017-09-28T03:56:26.289Z,82.9
2017-09-28T03:57:27.677Z,82.5
2017-09-28T03:58:29.069Z,82.5
2017-09-28T03:59:30.461Z,82.2
2017-09-28T04:00:31.850Z,82.6
2017-09-28T04:01:33.246Z,82.8
2017-09-28T04:02:34.628Z,82.8
2017-09-28T04:03:36.020Z,82.8
2017-09-28T04:04:37.410Z,83.0
2017-09-28T04:05:38.802Z,82.4
2017-09-28T04:06:40.194Z,82.4
2017-09-28T04:07:41.588Z,83.0
2017-09-28T04:08:42.978Z,82.9
2017-09-28T04:09:44.365Z,82.8
2017-09-28T04:10:45.759Z,83.1
2017-09-28T04:11:47.153Z,82.7
2017-09-28T04:12:48.575Z,82.9
2017-09-28T04:13:49.968Z,82.9
2017-09-28T04:14:51.357Z,82.8
2017-09-28T04:15:52.749Z,82.9
2017-09-28T04:16:54.136Z,83.0
2017-09-28T04:17:55.531Z,83.2
2017-09-28T04:18:56.915Z,83.2
2017-09-28T04:19:58.306Z,83.1
2017-09-28T04:20:59.698Z,83.1
2017-09-28T04:22:01.090Z,83.0
2017-09-28T04:23:02.478Z,83.1
2017-09-28T04:24:03.866Z,83.3
2017-09-28T04:25:05.254Z,83.2
2017-09-28T04:26:06.648Z,82.7
2017-09-28T04:27:08.043Z,82.8
2017-09-28T04:28:09.437Z,82.9
2017-09-28T04:29:10.828Z,83.1
2017-09-28T04:30:12.220Z,83.2
2017-09-28T04:31:13.613Z,83.7
2017-09-28T04:32:15.007Z,83.9
2017-09-28T04:33:16.396Z,84.1
2017-09-28T04:34:17.787Z,83.4
2017-09-28T04:35:19.182Z,83.7
2017-09-28T04:36:20.570Z,83.9
2017-09-28T04:37:21.961Z,83.8
2017-09-28T04:38:23.352Z,83.9
2017-09-28T04:39:24.740Z,84.2
2017-09-28T04:40:26.132Z,84.1
2017-09-28T04:41:27.521Z,83.6
2017-09-28T04:42:28.912Z,84.0
2017-09-28T04:43:30.304Z,83.8
2017-09-28T04:44:31.698Z,83.8
2017-09-28T04:45:33.084Z,83.8
2017-09-28T04:46:34.518Z,83.8
2017-09-28T04:47:35.910Z,84.2
2017-09-28T04:48:37.301Z,83.9
2017-09-28T04:49:38.693Z,83.6
2017-09-28T04:50:40.086Z,84.1
2017-09-28T04:51:41.472Z,83.8
2017-09-28T04:52:42.863Z,84.0
2017-09-28T04:53:44.255Z,84.1
2017-09-28T04:54:45.657Z,84.0
2017-09-28T04:55:47.051Z,84.3
2017-09-28T04:56:48.446Z,83.9
2017-09-28T04:57:49.838Z,84.5
2017-09-28T04:58:51.231Z,84.4
2017-09-28T04:59:52.618Z,84.4
2017-09-28T05:00:54.010Z,84.3
2017-09-28T05:01:55.401Z,84.4
2017-09-28T05:02:56.790Z,83.9
2017-09-28T05:03:58.183Z,84.4
2017-09-28T05:04:59.577Z,84.3
2017-09-28T05:06:00.969Z,84.2
2017-09-28T05:07:02.397Z,84.1
2017-09-28T05:08:03.785Z,84.1
2017-09-28T05:09:05.177Z,84.8
2017-09-28T05:10:06.571Z,84.7
2017-09-28T05:11:08.248Z,84.4
2017-09-28T05:12:09.630Z,84.5
2017-09-28T05:13:11.018Z,84.8
2017-09-28T05:14:12.409Z,84.6
2017-09-28T05:15:13.804Z,84.4
2017-09-28T05:16:15.192Z,84.7
2017-09-28T05:17:16.601Z,84.6
2017-09-28T05:18:18.792Z,84.4
2017-09-28T05:19:20.187Z,84.3
2017-09-28T05:20:21.577Z,84.8
2017-09-28T05:21:22.968Z,84.8
2017-09-28T05:22:24.360Z,84.3
2017-09-28T05:23:25.753Z,84.4
2017-09-28T05:24:27.142Z,84.3
2017-09-28T05:25:28.536Z,84.3
2017-09-28T05:26:29.932Z,84.6
2017-09-28T05:27:31.406Z,84.4
2017-09-28T05:28:33.001Z,85.2
2017-09-28T05:29:34.453Z,84.5
2017-09-28T05:30:35.846Z,84.4
2017-09-28T05:31:37.235Z,84.6
2017-09-28T05:32:38.630Z,84.5
2017-09-28T05:33:40.023Z,84.6
2017-09-28T05:34:43.557Z,85.2
2017-09-28T05:35:44.948Z,84.9
2017-09-28T05:36:46.359Z,85.2
2017-09-28T05:37:47.747Z,84.5
2017-09-28T05:38:49.141Z,84.8
2017-09-28T05:39:50.534Z,85.4
2017-09-28T05:40:51.927Z,85.2
2017-09-28T05:41:53.316Z,85.1
2017-09-28T05:42:54.707Z,85.3
2017-09-28T05:43:56.063Z,85.4
2017-09-28T05:44:57.461Z,85.3
2017-09-28T05:45:58.888Z,84.5
2017-09-28T05:47:00.280Z,85.0
2017-09-28T05:48:01.675Z,84.6
2017-09-28T05:49:03.064Z,85.1
2017-09-28T05:50:04.458Z,84.6
2017-09-28T05:51:05.855Z,84.9
2017-09-28T05:52:07.250Z,84.7
2017-09-28T05:53:08.644Z,84.5
2017-09-28T05:54:10.050Z,84.8
2017-09-28T05:55:11.447Z,84.9
2017-09-28T05:56:12.839Z,84.8
2017-09-28T05:57:14.231Z,84.8
2017-09-28T05:58:15.624Z,85.0
2017-09-28T05:59:17.017Z,84.9
2017-09-28T06:00:18.410Z,85.2
2017-09-28T06:01:19.803Z,84.5
2017-09-28T06:02:21.203Z,84.5
2017-09-28T06:03:22.595Z,84.3
2017-09-28T06:04:23.984Z,84.7
2017-09-28T06:05:25.376Z,84.4
2017-09-28T06:06:26.772Z,84.3
2017-09-28T06:07:28.164Z,84.6
2017-09-28T06:08:29.560Z,84.3
2017-09-28T06:09:30.953Z,84.4
2017-09-28T06:10:32.341Z,84.3
2017-09-28T06:11:33.733Z,84.8
2017-09-28T06:12:35.125Z,84.5
2017-09-28T06:13:36.518Z,85.0
2017-09-28T06:14:37.911Z,84.7
2017-09-28T06:15:39.302Z,85.0
2017-09-28T06:16:40.696Z,85.7
2017-09-28T06:17:42.086Z,86.0
2017-09-28T06:18:43.478Z,86.3
2017-09-28T06:19:44.872Z,87.2
2017-09-28T06:20:46.265Z,87.1
2017-09-28T06:21:47.659Z,87.0
2017-09-28T06:22:49.058Z,87.2
2017-09-28T06:23:50.477Z,87.3
2017-09-28T06:24:51.875Z,87.7
2017-09-28T06:25:53.267Z,87.7
2017-09-28T06:26:54.657Z,87.5
2017-09-28T06:27:56.050Z,87.9
2017-09-28T06:28:57.447Z,88.2
2017-09-28T06:29:58.845Z,88.7
2017-09-28T06:31:00.249Z,88.5
2017-09-28T06:32:01.634Z,89.3
2017-09-28T06:33:03.027Z,89.2
2017-09-28T06:34:04.422Z,89.1
2017-09-28T06:35:05.818Z,89.3
2017-09-28T06:36:07.210Z,89.1
2017-09-28T06:37:08.606Z,88.7
2017-09-28T06:38:09.999Z,89.6
2017-09-28T06:39:11.390Z,89.2
2017-09-28T06:40:12.812Z,89.2
2017-09-28T06:41:14.177Z,89.7
2017-09-28T06:42:15.570Z,89.2
2017-09-28T06:43:16.979Z,89.0
2017-09-28T06:44:18.361Z,89.2
2017-09-28T06:45:19.758Z,89.2
2017-09-28T06:46:21.148Z,89.1
2017-09-28T06:47:22.540Z,89.9
2017-09-28T06:48:23.932Z,89.9
2017-09-28T06:49:25.326Z,90.1
2017-09-28T06:50:26.721Z,90.2
2017-09-28T06:51:28.117Z,90.1
2017-09-28T06:52:29.537Z,90.1
2017-09-28T06:53:30.910Z,90.2
2017-09-28T06:54:32.301Z,90.3
2017-09-28T06:55:33.695Z,91.0
2017-09-28T06:56:35.090Z,90.6
2017-09-28T06:57:36.488Z,90.9
2017-09-28T06:58:37.879Z,91.0
2017-09-28T06:59:39.279Z,91.0
2017-09-28T07:00:40.684Z,90.4
2017-09-28T07:01:42.071Z,90.7
2017-09-28T07:02:43.464Z,90.6
2017-09-28T07:03:44.860Z,90.5
2017-09-28T07:04:46.260Z,90.4
2017-09-28T07:05:47.651Z,90.5
2017-09-28T07:06:49.048Z,90.7
2017-09-28T07:07:50.454Z,90.5
2017-09-28T07:08:51.851Z,89.9
2017-09-28T07:09:53.246Z,89.7
2017-09-28T07:10:54.638Z,89.1
2017-09-28T07:11:56.034Z,90.1
2017-09-28T07:12:57.430Z,89.2
2017-09-28T07:13:58.825Z,89.3
2017-09-28T07:15:00.217Z,89.6
2017-09-28T07:16:01.615Z,89.7
2017-09-28T07:17:03.008Z,89.8
2017-09-28T07:18:04.405Z,88.8
2017-09-28T07:19:05.801Z,88.8
2017-09-28T07:20:07.201Z,88.8
2017-09-28T07:21:08.596Z,88.8
2017-09-28T07:22:10.000Z,88.8
2017-09-28T07:23:11.391Z,88.8
2017-09-28T07:24:12.789Z,88.8
2017-09-28T07:25:14.219Z,88.8
2017-09-28T07:26:15.613Z,89.2
2017-09-28T07:27:17.008Z,88.5
2017-09-28T07:28:18.408Z,88.8
2017-09-28T07:29:19.801Z,88.7
2017-09-28T07:30:21.205Z,89.6
2017-09-28T07:31:22.599Z,89.7
2017-09-28T07:32:23.997Z,89.3
2017-09-28T07:33:25.396Z,89.4
2017-09-28T07:34:26.792Z,89.7
2017-09-28T07:35:28.189Z,89.7
2017-09-28T07:36:29.582Z,89.7
2017-09-28T07:37:30.981Z,88.8
2017-09-28T07:38:32.374Z,89.1
2017-09-28T07:39:33.773Z,89.4
2017-09-28T07:40:35.168Z,89.4
2017-09-28T07:41:36.565Z,89.5
2017-09-28T07:42:37.962Z,89.0
2017-09-28T07:43:39.354Z,88.7
2017-09-28T07:44:40.745Z,88.3
2017-09-28T07:45:42.138Z,88.6
2017-09-28T07:46:43.536Z,87.5
2017-09-28T07:47:44.927Z,87.9
2017-09-28T07:48:46.329Z,88.4
2017-09-28T07:49:47.724Z,88.7
2017-09-28T07:50:49.113Z,88.1
2017-09-28T07:51:50.508Z,87.7
2017-09-28T07:52:51.901Z,87.9
2017-09-28T07:53:53.300Z,87.7
2017-09-28T07:54:54.693Z,87.8
2017-09-28T07:55:56.097Z,87.7
2017-09-28T07:56:57.486Z,87.0
2017-09-28T07:57:58.880Z,87.9
2017-09-28T07:59:00.274Z,87.7
2017-09-28T08:00:01.670Z,87.5
2017-09-28T08:01:03.068Z,87.9
2017-09-28T08:02:04.468Z,87.1
2017-09-28T08:03:05.865Z,87.5
2017-09-28T08:04:07.264Z,87.4
2017-09-28T08:05:08.659Z,87.7
2017-09-28T08:06:10.055Z,87.8
2017-09-28T08:07:11.451Z,87.8
2017-09-28T08:08:12.845Z,87.9
2017-09-28T08:09:14.247Z,87.4
2017-09-28T08:10:15.646Z,87.8
2017-09-28T08:11:17.043Z,87.5
2017-09-28T08:12:18.436Z,87.2
2017-09-28T08:13:19.832Z,87.4
2017-09-28T08:14:21.229Z,87.8
2017-09-28T08:15:22.624Z,87.5
2017-09-28T08:16:24.022Z,87.5
2017-09-28T08:17:25.421Z,87.5
2017-09-28T08:18:26.818Z,87.4
2017-09-28T08:19:28.217Z,87.2
2017-09-28T08:20:29.610Z,86.6
2017-09-28T08:21:31.006Z,87.4
2017-09-28T08:22:32.406Z,87.2
2017-09-28T08:23:33.806Z,87.3
2017-09-28T08:24:35.200Z,87.7
2017-09-28T08:25:36.598Z,87.3
2017-09-28T08:26:37.996Z,87.1
2017-09-28T08:27:39.391Z,87.0
2017-09-28T08:28:40.785Z,86.8
2017-09-28T08:29:42.185Z,87.5
2017-09-28T08:30:43.584Z,87.4
2017-09-28T08:31:44.982Z,86.9
2017-09-28T08:32:46.381Z,87.0
2017-09-28T08:33:47.776Z,86.6
2017-09-28T08:34:49.176Z,86.2
2017-09-28T08:35:50.569Z,85.6
2017-09-28T08:36:51.968Z,85.4
2017-09-28T08:37:53.368Z,84.6
2017-09-28T08:38:54.763Z,84.9
2017-09-28T08:39:56.163Z,84.1
2017-09-28T08:40:57.556Z,84.1
2017-09-28T08:41:58.953Z,83.9
2017-09-28T08:43:00.350Z,83.2
2017-09-28T08:44:01.750Z,83.3
2017-09-28T08:45:03.149Z,84.2
2017-09-28T08:46:04.549Z,84.1
2017-09-28T08:47:05.948Z,84.2
2017-09-28T08:48:07.343Z,84.1
2017-09-28T08:49:08.747Z,83.5
2017-09-28T08:50:10.140Z,83.6
2017-09-28T08:51:11.535Z,83.3
2017-09-28T08:52:12.936Z,82.8
2017-09-28T08:53:14.348Z,83.3
2017-09-28T08:54:15.735Z,82.0
2017-09-28T08:55:17.134Z,82.3
2017-09-28T08:56:18.528Z,82.2
2017-09-28T08:57:19.929Z,82.1
2017-09-28T08:58:21.354Z,81.2
2017-09-28T08:59:22.722Z,80.8
2017-09-28T09:00:24.121Z,81.0
2017-09-28T09:01:25.521Z,81.5
2017-09-28T09:02:26.959Z,81.6
2017-09-28T09:03:28.349Z,80.7
2017-09-28T09:04:29.746Z,80.8
2017-09-28T09:05:31.144Z,81.2
2017-09-28T09:06:32.542Z,80.9
2017-09-28T09:07:33.941Z,80.4
2017-09-28T09:08:35.340Z,80.2
2017-09-28T09:09:36.737Z,79.9
2017-09-28T09:10:38.135Z,79.2
2017-09-28T09:11:39.531Z,78.9
2017-09-28T09:12:40.929Z,79.2
2017-09-28T09:13:42.327Z,78.5
2017-09-28T09:14:43.726Z,78.1
2017-09-28T09:15:45.129Z,78.1
2017-09-28T09:16:46.524Z,77.6
2017-09-28T09:17:47.920Z,77.6
2017-09-28T09:18:49.319Z,77.5
2017-09-28T09:19:50.716Z,76.6
2017-09-28T09:20:52.114Z,76.4
2017-09-28T09:21:53.513Z,76.3
2017-09-28T09:22:54.913Z,76.6
2017-09-28T09:23:56.311Z,75.9
2017-09-28T09:24:57.707Z,76.4
2017-09-28T09:25:59.102Z,76.0
2017-09-28T09:27:00.503Z,76.1
2017-09-28T09:28:01.901Z,75.3
2017-09-28T09:29:03.303Z,75.6
2017-09-28T09:30:04.704Z,75.7
2017-09-28T09:31:06.101Z,76.0
2017-09-28T09:32:07.503Z,75.5
2017-09-28T09:33:08.895Z,75.9
2017-09-28T09:34:10.293Z,75.6
2017-09-28T09:35:11.694Z,75.2
2017-09-28T09:36:13.092Z,76.6
2017-09-28T09:37:14.492Z,77.4
2017-09-28T09:38:15.890Z,77.7
2017-09-28T09:39:17.288Z,78.5
2017-09-28T09:40:18.683Z,77.7
2017-09-28T09:41:20.080Z,77.6
2017-09-28T09:42:21.478Z,77.3
2017-09-28T09:43:22.878Z,78.4
2017-09-28T09:44:24.276Z,78.8
2017-09-28T09:45:25.675Z,78.1
2017-09-28T09:46:27.073Z,79.3
2017-09-28T09:47:28.471Z,79.3
2017-09-28T09:48:29.864Z,79.4
2017-09-28T09:49:31.271Z,78.5
2017-09-28T09:50:32.663Z,78.7
2017-09-28T09:51:34.059Z,78.8
2017-09-28T09:52:35.458Z,78.5
2017-09-28T09:53:36.866Z,78.4
2017-09-28T09:54:38.249Z,79.3
2017-09-28T09:55:39.648Z,78.4
2017-09-28T09:56:41.048Z,78.5
2017-09-28T09:57:42.444Z,78.2
2017-09-28T09:58:43.843Z,78.7
2017-09-28T09:59:45.241Z,79.4
2017-09-28T10:00:46.638Z,79.9
2017-09-28T10:01:48.040Z,79.6
2017-09-28T10:02:49.433Z,79.7
2017-09-28T10:03:50.837Z,79.6
2017-09-28T10:04:52.234Z,79.7
2017-09-28T10:05:53.632Z,79.5
2017-09-28T10:06:55.029Z,80.0
2017-09-28T10:07:56.426Z,80.1
2017-09-28T10:08:57.824Z,80.1
2017-09-28T10:09:59.220Z,80.0
2017-09-28T10:11:00.620Z,80.0
2017-09-28T10:12:02.031Z,79.8
2017-09-28T10:13:03.426Z,79.8
2017-09-28T10:14:04.820Z,80.0
2017-09-28T10:15:06.220Z,79.9
2017-09-28T10:16:07.619Z,79.8
2017-09-28T10:17:09.013Z,79.8
2017-09-28T10:18:10.412Z,80.0
2017-09-28T10:19:11.808Z,80.2
2017-09-28T10:20:13.208Z,80.4
2017-09-28T10:21:14.601Z,80.5
2017-09-28T10:22:15.996Z,80.7
2017-09-28T10:23:17.397Z,80.5
2017-09-28T10:24:18.787Z,80.5
2017-09-28T10:25:20.187Z,81.0
2017-09-28T10:26:21.584Z,80.8
2017-09-28T10:27:22.983Z,81.0
2017-09-28T10:28:24.380Z,80.9
2017-09-28T10:29:25.775Z,81.0
2017-09-28T10:30:27.174Z,81.1
2017-09-28T10:31:28.571Z,81.4
2017-09-28T10:32:29.975Z,80.9
2017-09-28T10:33:31.368Z,81.2
2017-09-28T10:34:32.767Z,81.6
2017-09-28T10:35:34.163Z,81.5
2017-09-28T10:36:35.558Z,81.4
2017-09-28T10:37:36.956Z,82.0
2017-09-28T10:38:38.352Z,81.4
2017-09-28T10:39:39.749Z,82.7
2017-09-28T10:40:41.146Z,82.5
2017-09-28T10:41:42.584Z,82.5
2017-09-28T10:42:43.981Z,82.4
2017-09-28T10:43:45.378Z,82.7
2017-09-28T10:44:46.773Z,82.9
2017-09-28T10:45:48.172Z,83.5
2017-09-28T10:46:49.572Z,84.0
2017-09-28T10:47:50.965Z,84.2
2017-09-28T10:48:52.363Z,84.0
2017-09-28T10:49:53.756Z,84.2
2017-09-28T10:50:55.154Z,84.2
2017-09-28T10:51:56.551Z,84.6
2017-09-28T10:52:57.945Z,85.0
2017-09-28T10:53:59.341Z,84.3
2017-09-28T10:55:00.740Z,84.8
2017-09-28T10:56:02.137Z,84.6
2017-09-28T10:57:03.533Z,85.0
2017-09-28T10:58:04.928Z,84.7
2017-09-28T10:59:06.351Z,84.4
2017-09-28T11:00:07.753Z,84.6
2017-09-28T11:01:09.150Z,85.3
2017-09-28T11:02:10.544Z,85.5
2017-09-28T11:03:11.946Z,85.8
2017-09-28T11:04:13.345Z,85.6
2017-09-28T11:05:14.747Z,86.1
2017-09-28T11:06:16.143Z,85.8
2017-09-28T11:07:17.547Z,86.2
2017-09-28T11:08:18.945Z,86.4
2017-09-28T11:09:20.344Z,85.7
2017-09-28T11:10:21.745Z,85.1
2017-09-28T11:11:23.142Z,85.8
2017-09-28T11:12:24.535Z,86.2
2017-09-28T11:13:25.933Z,85.7
2017-09-28T11:14:27.329Z,85.2
2017-09-28T11:15:28.729Z,85.4
2017-09-28T11:16:30.128Z,85.9
2017-09-28T11:17:31.529Z,85.8
2017-09-28T11:18:32.924Z,85.9
2017-09-28T11:19:34.317Z,85.6
2017-09-28T11:20:35.716Z,86.0
2017-09-28T11:21:37.117Z,86.1
2017-09-28T11:22:38.513Z,86.3
2017-09-28T11:23:39.914Z,85.8
2017-09-28T11:24:41.317Z,85.3
2017-09-28T11:25:42.712Z,84.8
2017-09-28T11:26:44.108Z,84.7
2017-09-28T11:27:45.506Z,84.9
2017-09-28T11:28:46.903Z,84.1
2017-09-28T11:29:48.301Z,83.4
2017-09-28T11:30:49.700Z,83.5
2017-09-28T11:31:51.098Z,83.4
2017-09-28T11:32:52.496Z,82.4
2017-09-28T11:33:53.892Z,82.9
2017-09-28T11:34:55.287Z,82.9
2017-09-28T11:35:56.685Z,83.0
2017-09-28T11:36:58.081Z,82.9
2017-09-28T11:37:59.482Z,82.4
2017-09-28T11:39:00.882Z,81.9
2017-09-28T11:40:02.278Z,81.9
2017-09-28T11:41:03.677Z,82.0
2017-09-28T11:42:05.076Z,81.4
2017-09-28T11:43:06.478Z,81.4
2017-09-28T11:44:07.879Z,81.7
2017-09-28T11:45:09.275Z,80.9
2017-09-28T11:46:10.674Z,81.0
2017-09-28T11:47:12.071Z,80.0
2017-09-28T11:48:13.467Z,80.0
2017-09-28T11:49:14.865Z,79.6
2017-09-28T11:50:16.265Z,79.9
2017-09-28T11:51:17.662Z,80.2
2017-09-28T11:52:19.064Z,79.2
2017-09-28T11:53:20.463Z,78.2
2017-09-28T11:54:21.859Z,77.3
2017-09-28T11:55:23.259Z,76.9
2017-09-28T11:56:24.657Z,76.2
2017-09-28T11:57:26.055Z,74.9
2017-09-28T11:58:27.454Z,74.7
2017-09-28T11:59:28.853Z,73.8
2017-09-28T12:00:30.252Z,73.5
2017-09-28T12:01:31.649Z,73.0
2017-09-28T12:02:33.047Z,72.7
2017-09-28T12:03:34.442Z,72.6
2017-09-28T12:04:35.841Z,72.8
2017-09-28T12:05:37.276Z,73.4
2017-09-28T12:06:38.638Z,72.1
2017-09-28T12:07:40.039Z,71.6
2017-09-28T12:08:41.435Z,70.4
2017-09-28T12:09:42.835Z,69.8
2017-09-28T12:10:44.229Z,70.2
2017-09-28T12:11:45.631Z,69.8
2017-09-28T12:12:47.030Z,69.7
2017-09-28T12:13:48.432Z,69.4
2017-09-28T12:14:49.836Z,68.4
2017-09-28T12:15:51.237Z,68.5
2017-09-28T12:16:52.636Z,66.9
2017-09-28T12:17:54.032Z,66.3
2017-09-28T12:18:55.452Z,66.2
2017-09-28T12:19:56.850Z,66.4
2017-09-28T12:20:58.250Z,66.3
2017-09-28T12:21:59.652Z,66.3
2017-09-28T12:23:01.048Z,66.3
2017-09-28T12:24:02.451Z,66.3
2017-09-28T12:25:03.851Z,65.4
2017-09-28T12:26:05.248Z,65.1
2017-09-28T12:27:06.649Z,64.8
2017-09-28T12:28:08.048Z,64.7
2017-09-28T12:29:09.451Z,64.8
2017-09-28T12:30:10.849Z,65.3
2017-09-28T12:31:12.249Z,65.5
2017-09-28T12:32:13.650Z,63.6
2017-09-28T12:33:15.051Z,63.9
2017-09-28T12:34:16.483Z,63.7
2017-09-28T12:35:17.851Z,63.3
2017-09-28T12:36:19.250Z,62.4
2017-09-28T12:37:20.649Z,61.9
2017-09-28T12:38:22.046Z,62.3
2017-09-28T12:39:23.445Z,63.9
2017-09-28T12:40:24.847Z,62.6
2017-09-28T12:41:26.254Z,62.2
2017-09-28T12:42:27.649Z,63.5
2017-09-28T12:43:29.051Z,62.0
2017-09-28T12:44:30.448Z,61.1
2017-09-28T12:45:31.845Z,60.7
2017-09-28T12:46:33.247Z,60.9
2017-09-28T12:47:34.654Z,61.2
2017-09-28T12:48:36.051Z,60.5
2017-09-28T12:49:37.450Z,60.6
2017-09-28T12:50:38.854Z,61.8
2017-09-28T12:51:40.253Z,60.9
2017-09-28T12:52:41.656Z,60.3
2017-09-28T12:53:43.054Z,59.6
2017-09-28T12:54:44.453Z,60.3
2017-09-28T12:55:45.855Z,60.0
2017-09-28T12:56:47.257Z,60.8
2017-09-28T12:57:48.659Z,59.7
2017-09-28T12:58:50.055Z,57.2
2017-09-28T12:59:51.456Z,57.6
2017-09-28T13:00:52.856Z,57.0
2017-09-28T13:01:54.258Z,56.3
2017-09-28T13:02:55.659Z,56.9
2017-09-28T13:03:57.061Z,56.6
2017-09-28T13:04:58.461Z,56.7
2017-09-28T13:05:59.864Z,56.7
2017-09-28T13:07:01.264Z,56.0
2017-09-28T13:08:02.666Z,55.8
2017-09-28T13:09:04.066Z,56.5
2017-09-28T13:10:05.473Z,56.8
2017-09-28T13:11:06.869Z,57.0
2017-09-28T13:12:08.271Z,57.0
2017-09-28T13:13:09.673Z,57.4
2017-09-28T13:14:11.072Z,57.7
2017-09-28T13:15:12.473Z,59.1
2017-09-28T13:16:13.875Z,57.5
2017-09-28T13:17:15.287Z,59.0
2017-09-28T13:18:16.686Z,59.5
2017-09-28T13:19:18.089Z,59.3
2017-09-28T13:20:19.488Z,59.7
2017-09-28T13:21:20.887Z,60.1
2017-09-28T13:22:22.285Z,60.7
2017-09-28T13:23:23.685Z,61.2
2017-09-28T13:24:25.084Z,61.2
2017-09-28T13:25:26.488Z,62.0
2017-09-28T13:26:27.886Z,62.5
2017-09-28T13:27:29.285Z,63.1
2017-09-28T13:28:30.684Z,63.1
2017-09-28T13:29:32.091Z,62.7
2017-09-28T13:30:33.490Z,63.8
2017-09-28T13:31:34.892Z,63.5
2017-09-28T13:32:36.293Z,63.8
2017-09-28T13:33:37.695Z,63.4
2017-09-28T13:34:39.093Z,63.2
2017-09-28T13:35:40.491Z,63.5
2017-09-28T13:36:41.891Z,63.7